sensor_id;sensor_type;location;lat;lon;timestamp;P1;durP1;ratioP1;P2;durP2;ratioP2
7324;SDS011;3703;48.016;7.802;2023-05-07T00:00:01;8.27;;;6.57;;
7324;SDS011;3703;48.016;7.802;2023-05-07T00:02:34;7.20;;;5.77;;
7324;SDS011;3703;48.016;7.802;2023-05-07T00:05:02;8.23;;;6.40;;
7324;SDS011;3703;48.016;7.802;2023-05-07T00:07:30;8.20;;;6.37;;
7324;SDS011;3703;48.016;7.802;2023-05-07T00:09:57;7.00;;;5.97;;
7324;SDS011;3703;48.016;7.802;2023-05-07T00:12:25;7.00;;;5.83;;
7324;SDS011;3703;48.016;7.802;2023-05-07T00:14:52;8.17;;;6.07;;
7324;SDS011;3703;48.016;7.802;2023-05-07T00:17:19;8.90;;;6.10;;
7324;SDS011;3703;48.016;7.802;2023-05-07T00:19:48;6.40;;;5.77;;
7324;SDS011;3703;48.016;7.802;2023-05-07T00:22:15;7.80;;;5.67;;
7324;SDS011;3703;48.016;7.802;2023-05-07T00:24:42;6.13;;;5.43;;
7324;SDS011;3703;48.016;7.802;2023-05-07T00:27:09;6.23;;;5.27;;
7324;SDS011;3703;48.016;7.802;2023-05-07T00:29:36;11.50;;;6.23;;
7324;SDS011;3703;48.016;7.802;2023-05-07T00:32:04;7.67;;;5.70;;
7324;SDS011;3703;48.016;7.802;2023-05-07T00:34:31;6.13;;;5.53;;
7324;SDS011;3703;48.016;7.802;2023-05-07T00:37:00;6.93;;;5.13;;
7324;SDS011;3703;48.016;7.802;2023-05-07T00:39:28;7.77;;;5.80;;
7324;SDS011;3703;48.016;7.802;2023-05-07T00:41:55;9.83;;;7.77;;
7324;SDS011;3703;48.016;7.802;2023-05-07T00:44:22;10.43;;;7.00;;
7324;SDS011;3703;48.016;7.802;2023-05-07T00:46:49;8.97;;;6.83;;
7324;SDS011;3703;48.016;7.802;2023-05-07T00:49:16;9.00;;;7.00;;
7324;SDS011;3703;48.016;7.802;2023-05-07T00:51:45;9.57;;;7.60;;
7324;SDS011;3703;48.016;7.802;2023-05-07T00:54:14;10.43;;;7.87;;
7324;SDS011;3703;48.016;7.802;2023-05-07T00:56:41;10.47;;;6.80;;
7324;SDS011;3703;48.016;7.802;2023-05-07T00:59:08;9.93;;;7.07;;
7324;SDS011;3703;48.016;7.802;2023-05-07T01:01:36;8.70;;;7.10;;
7324;SDS011;3703;48.016;7.802;2023-05-07T01:04:03;8.30;;;7.03;;
7324;SDS011;3703;48.016;7.802;2023-05-07T01:06:30;9.07;;;7.67;;
7324;SDS011;3703;48.016;7.802;2023-05-07T01:08:59;8.73;;;6.37;;
7324;SDS011;3703;48.016;7.802;2023-05-07T01:11:31;9.63;;;7.13;;
7324;SDS011;3703;48.016;7.802;2023-05-07T01:13:58;7.67;;;6.87;;
7324;SDS011;3703;48.016;7.802;2023-05-07T01:16:26;9.57;;;6.80;;
7324;SDS011;3703;48.016;7.802;2023-05-07T01:18:53;7.73;;;6.10;;
7324;SDS011;3703;48.016;7.802;2023-05-07T01:21:21;8.70;;;6.30;;
7324;SDS011;3703;48.016;7.802;2023-05-07T01:23:54;10.87;;;6.60;;
7324;SDS011;3703;48.016;7.802;2023-05-07T01:26:22;8.87;;;6.60;;
7324;SDS011;3703;48.016;7.802;2023-05-07T01:28:49;7.97;;;6.00;;
7324;SDS011;3703;48.016;7.802;2023-05-07T01:31:16;7.73;;;6.00;;
7324;SDS011;3703;48.016;7.802;2023-05-07T01:33:44;7.00;;;5.60;;
7324;SDS011;3703;48.016;7.802;2023-05-07T01:36:15;7.23;;;6.10;;
7324;SDS011;3703;48.016;7.802;2023-05-07T01:38:43;5.50;;;5.00;;
7324;SDS011;3703;48.016;7.802;2023-05-07T01:41:13;6.27;;;5.30;;
7324;SDS011;3703;48.016;7.802;2023-05-07T01:43:40;6.73;;;5.03;;
7324;SDS011;3703;48.016;7.802;2023-05-07T01:46:08;6.37;;;5.33;;
7324;SDS011;3703;48.016;7.802;2023-05-07T01:48:37;6.97;;;5.00;;
7324;SDS011;3703;48.016;7.802;2023-05-07T01:51:04;6.77;;;5.50;;
7324;SDS011;3703;48.016;7.802;2023-05-07T01:53:35;8.33;;;5.23;;
7324;SDS011;3703;48.016;7.802;2023-05-07T01:56:02;6.27;;;5.00;;
7324;SDS011;3703;48.016;7.802;2023-05-07T01:58:32;6.27;;;4.73;;
7324;SDS011;3703;48.016;7.802;2023-05-07T02:00:59;6.30;;;5.17;;
7324;SDS011;3703;48.016;7.802;2023-05-07T02:03:26;6.83;;;5.40;;
7324;SDS011;3703;48.016;7.802;2023-05-07T02:05:54;7.33;;;4.87;;
7324;SDS011;3703;48.016;7.802;2023-05-07T02:08:21;5.13;;;4.63;;
7324;SDS011;3703;48.016;7.802;2023-05-07T02:10:48;8.20;;;4.30;;
7324;SDS011;3703;48.016;7.802;2023-05-07T02:13:16;5.73;;;4.93;;
7324;SDS011;3703;48.016;7.802;2023-05-07T02:15:46;5.13;;;4.63;;
7324;SDS011;3703;48.016;7.802;2023-05-07T02:18:16;6.27;;;4.80;;
7324;SDS011;3703;48.016;7.802;2023-05-07T02:20:43;5.87;;;5.27;;
7324;SDS011;3703;48.016;7.802;2023-05-07T02:23:10;8.00;;;5.37;;
7324;SDS011;3703;48.016;7.802;2023-05-07T02:25:37;7.87;;;5.00;;
7324;SDS011;3703;48.016;7.802;2023-05-07T02:28:05;5.73;;;5.10;;
7324;SDS011;3703;48.016;7.802;2023-05-07T02:30:32;8.83;;;5.27;;
7324;SDS011;3703;48.016;7.802;2023-05-07T02:33:00;7.87;;;5.47;;
7324;SDS011;3703;48.016;7.802;2023-05-07T02:35:27;5.20;;;4.70;;
7324;SDS011;3703;48.016;7.802;2023-05-07T02:37:54;9.30;;;5.50;;
7324;SDS011;3703;48.016;7.802;2023-05-07T02:40:22;5.70;;;5.10;;
7324;SDS011;3703;48.016;7.802;2023-05-07T02:42:50;6.83;;;5.10;;
7324;SDS011;3703;48.016;7.802;2023-05-07T02:45:17;6.90;;;5.07;;
7324;SDS011;3703;48.016;7.802;2023-05-07T02:47:45;6.77;;;4.90;;
7324;SDS011;3703;48.016;7.802;2023-05-07T02:50:14;6.43;;;5.50;;
7324;SDS011;3703;48.016;7.802;2023-05-07T02:52:41;7.93;;;5.70;;
7324;SDS011;3703;48.016;7.802;2023-05-07T02:55:08;6.30;;;5.37;;
7324;SDS011;3703;48.016;7.802;2023-05-07T02:57:36;5.90;;;5.27;;
7324;SDS011;3703;48.016;7.802;2023-05-07T03:00:13;7.87;;;5.30;;
7324;SDS011;3703;48.016;7.802;2023-05-07T03:02:41;8.00;;;5.53;;
7324;SDS011;3703;48.016;7.802;2023-05-07T03:05:08;6.60;;;5.37;;
7324;SDS011;3703;48.016;7.802;2023-05-07T03:07:37;9.27;;;5.60;;
7324;SDS011;3703;48.016;7.802;2023-05-07T03:10:04;8.57;;;5.73;;
7324;SDS011;3703;48.016;7.802;2023-05-07T03:12:32;7.60;;;5.40;;
7324;SDS011;3703;48.016;7.802;2023-05-07T03:15:00;7.73;;;5.33;;
7324;SDS011;3703;48.016;7.802;2023-05-07T03:17:28;9.17;;;5.60;;
7324;SDS011;3703;48.016;7.802;2023-05-07T03:19:55;6.20;;;4.77;;
7324;SDS011;3703;48.016;7.802;2023-05-07T03:22:22;9.03;;;5.43;;
7324;SDS011;3703;48.016;7.802;2023-05-07T03:24:51;8.97;;;5.27;;
7324;SDS011;3703;48.016;7.802;2023-05-07T03:27:18;6.53;;;5.07;;
7324;SDS011;3703;48.016;7.802;2023-05-07T03:29:45;5.80;;;5.23;;
7324;SDS011;3703;48.016;7.802;2023-05-07T03:32:12;5.00;;;4.60;;
7324;SDS011;3703;48.016;7.802;2023-05-07T03:34:39;9.17;;;5.10;;
7324;SDS011;3703;48.016;7.802;2023-05-07T03:37:06;12.30;;;6.47;;
7324;SDS011;3703;48.016;7.802;2023-05-07T03:39:33;8.73;;;5.87;;
7324;SDS011;3703;48.016;7.802;2023-05-07T03:42:02;9.50;;;7.53;;
7324;SDS011;3703;48.016;7.802;2023-05-07T03:44:29;9.13;;;7.13;;
7324;SDS011;3703;48.016;7.802;2023-05-07T03:46:56;9.40;;;6.23;;
7324;SDS011;3703;48.016;7.802;2023-05-07T03:49:24;8.33;;;5.93;;
7324;SDS011;3703;48.016;7.802;2023-05-07T03:51:51;6.63;;;5.90;;
7324;SDS011;3703;48.016;7.802;2023-05-07T03:54:18;8.83;;;5.60;;
7324;SDS011;3703;48.016;7.802;2023-05-07T03:56:45;9.07;;;5.90;;
7324;SDS011;3703;48.016;7.802;2023-05-07T03:59:14;10.13;;;5.97;;
7324;SDS011;3703;48.016;7.802;2023-05-07T04:01:41;9.07;;;5.77;;
7324;SDS011;3703;48.016;7.802;2023-05-07T04:04:08;6.70;;;6.00;;
7324;SDS011;3703;48.016;7.802;2023-05-07T04:06:35;7.97;;;6.03;;
7324;SDS011;3703;48.016;7.802;2023-05-07T04:09:03;11.00;;;5.60;;
7324;SDS011;3703;48.016;7.802;2023-05-07T04:11:31;8.57;;;5.53;;
7324;SDS011;3703;48.016;7.802;2023-05-07T04:13:58;10.93;;;5.47;;
7324;SDS011;3703;48.016;7.802;2023-05-07T04:16:27;9.17;;;5.70;;
7324;SDS011;3703;48.016;7.802;2023-05-07T04:18:54;5.97;;;5.13;;
7324;SDS011;3703;48.016;7.802;2023-05-07T04:21:21;6.53;;;5.43;;
7324;SDS011;3703;48.016;7.802;2023-05-07T04:23:49;7.90;;;5.67;;
7324;SDS011;3703;48.016;7.802;2023-05-07T04:26:16;4.13;;;3.37;;
7324;SDS011;3703;48.016;7.802;2023-05-07T04:28:43;5.00;;;4.50;;
7324;SDS011;3703;48.016;7.802;2023-05-07T04:31:10;6.10;;;5.03;;
7324;SDS011;3703;48.016;7.802;2023-05-07T04:33:39;7.67;;;4.60;;
7324;SDS011;3703;48.016;7.802;2023-05-07T04:36:06;4.77;;;3.20;;
7324;SDS011;3703;48.016;7.802;2023-05-07T04:38:34;7.07;;;4.90;;
7324;SDS011;3703;48.016;7.802;2023-05-07T04:41:02;4.97;;;4.47;;
7324;SDS011;3703;48.016;7.802;2023-05-07T04:43:31;5.13;;;4.63;;
7324;SDS011;3703;48.016;7.802;2023-05-07T04:45:58;8.20;;;5.17;;
7324;SDS011;3703;48.016;7.802;2023-05-07T04:48:25;5.20;;;4.20;;
7324;SDS011;3703;48.016;7.802;2023-05-07T04:50:55;8.33;;;4.40;;
7324;SDS011;3703;48.016;7.802;2023-05-07T04:53:22;8.03;;;4.30;;
7324;SDS011;3703;48.016;7.802;2023-05-07T04:55:54;7.47;;;4.93;;
7324;SDS011;3703;48.016;7.802;2023-05-07T04:58:22;4.73;;;4.23;;
7324;SDS011;3703;48.016;7.802;2023-05-07T05:00:50;8.00;;;4.43;;
7324;SDS011;3703;48.016;7.802;2023-05-07T05:03:17;10.43;;;4.67;;
7324;SDS011;3703;48.016;7.802;2023-05-07T05:05:44;9.20;;;3.87;;
7324;SDS011;3703;48.016;7.802;2023-05-07T05:08:13;5.23;;;3.60;;
7324;SDS011;3703;48.016;7.802;2023-05-07T05:10:40;5.93;;;4.20;;
7324;SDS011;3703;48.016;7.802;2023-05-07T05:13:08;7.43;;;4.20;;
7324;SDS011;3703;48.016;7.802;2023-05-07T05:15:37;4.70;;;3.77;;
7324;SDS011;3703;48.016;7.802;2023-05-07T05:18:04;6.40;;;4.23;;
7324;SDS011;3703;48.016;7.802;2023-05-07T05:20:32;4.00;;;3.67;;
7324;SDS011;3703;48.016;7.802;2023-05-07T05:22:59;6.83;;;4.37;;
7324;SDS011;3703;48.016;7.802;2023-05-07T05:25:27;5.80;;;4.30;;
7324;SDS011;3703;48.016;7.802;2023-05-07T05:27:54;6.57;;;4.40;;
7324;SDS011;3703;48.016;7.802;2023-05-07T05:30:22;6.77;;;4.33;;
7324;SDS011;3703;48.016;7.802;2023-05-07T05:32:49;4.20;;;3.80;;
7324;SDS011;3703;48.016;7.802;2023-05-07T05:35:16;5.33;;;3.93;;
7324;SDS011;3703;48.016;7.802;2023-05-07T05:37:43;6.10;;;4.00;;
7324;SDS011;3703;48.016;7.802;2023-05-07T05:40:10;4.47;;;4.03;;
7324;SDS011;3703;48.016;7.802;2023-05-07T05:42:40;6.43;;;3.73;;
7324;SDS011;3703;48.016;7.802;2023-05-07T05:45:08;4.20;;;3.77;;
7324;SDS011;3703;48.016;7.802;2023-05-07T05:47:36;5.73;;;4.07;;
7324;SDS011;3703;48.016;7.802;2023-05-07T05:50:04;3.63;;;3.33;;
7324;SDS011;3703;48.016;7.802;2023-05-07T05:52:33;5.13;;;3.43;;
7324;SDS011;3703;48.016;7.802;2023-05-07T05:55:00;5.87;;;3.70;;
7324;SDS011;3703;48.016;7.802;2023-05-07T05:57:27;5.43;;;3.83;;
7324;SDS011;3703;48.016;7.802;2023-05-07T05:59:56;4.50;;;3.30;;
7324;SDS011;3703;48.016;7.802;2023-05-07T06:02:23;4.70;;;3.60;;
7324;SDS011;3703;48.016;7.802;2023-05-07T06:04:50;5.07;;;3.80;;
7324;SDS011;3703;48.016;7.802;2023-05-07T06:07:17;5.33;;;3.67;;
7324;SDS011;3703;48.016;7.802;2023-05-07T06:09:44;4.37;;;3.70;;
7324;SDS011;3703;48.016;7.802;2023-05-07T06:12:11;7.00;;;4.30;;
7324;SDS011;3703;48.016;7.802;2023-05-07T06:14:39;7.43;;;4.17;;
7324;SDS011;3703;48.016;7.802;2023-05-07T06:17:08;6.07;;;4.40;;
7324;SDS011;3703;48.016;7.802;2023-05-07T06:19:35;6.80;;;4.03;;
7324;SDS011;3703;48.016;7.802;2023-05-07T06:22:02;5.70;;;3.97;;
7324;SDS011;3703;48.016;7.802;2023-05-07T06:24:29;4.70;;;4.30;;
7324;SDS011;3703;48.016;7.802;2023-05-07T06:26:56;4.53;;;4.13;;
7324;SDS011;3703;48.016;7.802;2023-05-07T06:29:24;3.83;;;3.53;;
7324;SDS011;3703;48.016;7.802;2023-05-07T06:31:52;4.43;;;4.00;;
7324;SDS011;3703;48.016;7.802;2023-05-07T06:34:20;5.53;;;4.00;;
7324;SDS011;3703;48.016;7.802;2023-05-07T06:36:47;6.27;;;4.40;;
7324;SDS011;3703;48.016;7.802;2023-05-07T06:39:14;6.23;;;4.37;;
7324;SDS011;3703;48.016;7.802;2023-05-07T06:41:42;6.33;;;5.10;;
7324;SDS011;3703;48.016;7.802;2023-05-07T06:44:09;6.03;;;5.20;;
7324;SDS011;3703;48.016;7.802;2023-05-07T06:46:36;7.23;;;5.77;;
7324;SDS011;3703;48.016;7.802;2023-05-07T06:49:03;10.17;;;5.80;;
7324;SDS011;3703;48.016;7.802;2023-05-07T06:51:31;5.80;;;5.20;;
7324;SDS011;3703;48.016;7.802;2023-05-07T06:53:59;7.63;;;5.90;;
7324;SDS011;3703;48.016;7.802;2023-05-07T06:56:26;7.17;;;5.63;;
7324;SDS011;3703;48.016;7.802;2023-05-07T06:58:53;6.20;;;5.60;;
7324;SDS011;3703;48.016;7.802;2023-05-07T07:01:20;10.40;;;6.60;;
7324;SDS011;3703;48.016;7.802;2023-05-07T07:03:47;7.70;;;6.03;;
7324;SDS011;3703;48.016;7.802;2023-05-07T07:06:16;13.53;;;7.33;;
7324;SDS011;3703;48.016;7.802;2023-05-07T07:08:44;8.70;;;6.77;;
7324;SDS011;3703;48.016;7.802;2023-05-07T07:11:11;9.00;;;6.00;;
7324;SDS011;3703;48.016;7.802;2023-05-07T07:13:39;7.27;;;5.80;;
7324;SDS011;3703;48.016;7.802;2023-05-07T07:16:06;8.07;;;6.40;;
7324;SDS011;3703;48.016;7.802;2023-05-07T07:18:33;8.27;;;6.33;;
7324;SDS011;3703;48.016;7.802;2023-05-07T07:21:01;5.27;;;4.77;;
7324;SDS011;3703;48.016;7.802;2023-05-07T07:23:28;6.13;;;5.53;;
7324;SDS011;3703;48.016;7.802;2023-05-07T07:25:57;7.07;;;5.17;;
7324;SDS011;3703;48.016;7.802;2023-05-07T07:28:24;5.93;;;5.20;;
7324;SDS011;3703;48.016;7.802;2023-05-07T07:30:51;9.03;;;5.93;;
7324;SDS011;3703;48.016;7.802;2023-05-07T07:33:18;8.03;;;6.20;;
7324;SDS011;3703;48.016;7.802;2023-05-07T07:35:46;8.23;;;4.87;;
7324;SDS011;3703;48.016;7.802;2023-05-07T07:38:13;8.83;;;5.40;;
7324;SDS011;3703;48.016;7.802;2023-05-07T07:40:40;9.10;;;5.03;;
7324;SDS011;3703;48.016;7.802;2023-05-07T07:43:10;7.03;;;4.63;;
7324;SDS011;3703;48.016;7.802;2023-05-07T07:45:37;5.57;;;4.33;;
7324;SDS011;3703;48.016;7.802;2023-05-07T07:48:04;5.70;;;5.10;;
7324;SDS011;3703;48.016;7.802;2023-05-07T07:50:32;5.57;;;5.00;;
7324;SDS011;3703;48.016;7.802;2023-05-07T07:52:59;5.73;;;4.80;;
7324;SDS011;3703;48.016;7.802;2023-05-07T07:55:26;6.30;;;4.80;;
7324;SDS011;3703;48.016;7.802;2023-05-07T07:57:53;8.40;;;4.13;;
7324;SDS011;3703;48.016;7.802;2023-05-07T08:00:22;6.67;;;4.23;;
7324;SDS011;3703;48.016;7.802;2023-05-07T08:02:50;8.60;;;4.83;;
7324;SDS011;3703;48.016;7.802;2023-05-07T08:05:17;5.03;;;4.27;;
7324;SDS011;3703;48.016;7.802;2023-05-07T08:07:45;5.90;;;4.50;;
7324;SDS011;3703;48.016;7.802;2023-05-07T08:10:17;5.50;;;4.10;;
7324;SDS011;3703;48.016;7.802;2023-05-07T08:12:46;5.13;;;4.63;;
7324;SDS011;3703;48.016;7.802;2023-05-07T08:15:14;5.77;;;4.57;;
7324;SDS011;3703;48.016;7.802;2023-05-07T08:17:43;4.13;;;3.73;;
7324;SDS011;3703;48.016;7.802;2023-05-07T08:20:10;9.30;;;5.30;;
7324;SDS011;3703;48.016;7.802;2023-05-07T08:22:37;8.03;;;5.10;;
7324;SDS011;3703;48.016;7.802;2023-05-07T08:25:05;6.20;;;4.20;;
7324;SDS011;3703;48.016;7.802;2023-05-07T08:27:33;5.47;;;4.60;;
7324;SDS011;3703;48.016;7.802;2023-05-07T08:30:00;5.10;;;4.60;;
7324;SDS011;3703;48.016;7.802;2023-05-07T08:32:27;8.23;;;4.70;;
7324;SDS011;3703;48.016;7.802;2023-05-07T08:34:56;5.07;;;4.30;;
7324;SDS011;3703;48.016;7.802;2023-05-07T08:37:23;5.57;;;4.77;;
7324;SDS011;3703;48.016;7.802;2023-05-07T08:39:50;4.97;;;4.03;;
7324;SDS011;3703;48.016;7.802;2023-05-07T08:42:17;8.10;;;5.23;;
7324;SDS011;3703;48.016;7.802;2023-05-07T08:44:47;6.40;;;4.83;;
7324;SDS011;3703;48.016;7.802;2023-05-07T08:47:18;7.33;;;5.13;;
7324;SDS011;3703;48.016;7.802;2023-05-07T08:49:46;8.47;;;5.47;;
7324;SDS011;3703;48.016;7.802;2023-05-07T08:52:15;6.17;;;4.87;;
7324;SDS011;3703;48.016;7.802;2023-05-07T08:54:42;7.23;;;5.40;;
7324;SDS011;3703;48.016;7.802;2023-05-07T08:57:10;5.83;;;5.17;;
7324;SDS011;3703;48.016;7.802;2023-05-07T08:59:37;7.87;;;6.23;;
7324;SDS011;3703;48.016;7.802;2023-05-07T09:02:04;14.70;;;7.03;;
7324;SDS011;3703;48.016;7.802;2023-05-07T09:04:35;6.50;;;5.67;;
7324;SDS011;3703;48.016;7.802;2023-05-07T09:07:02;8.23;;;6.17;;
7324;SDS011;3703;48.016;7.802;2023-05-07T09:09:33;8.17;;;6.40;;
7324;SDS011;3703;48.016;7.802;2023-05-07T09:12:00;20.10;;;12.23;;
7324;SDS011;3703;48.016;7.802;2023-05-07T09:14:28;9.03;;;6.27;;
7324;SDS011;3703;48.016;7.802;2023-05-07T09:16:56;16.00;;;9.40;;
7324;SDS011;3703;48.016;7.802;2023-05-07T09:19:23;15.43;;;10.03;;
7324;SDS011;3703;48.016;7.802;2023-05-07T09:21:57;7.47;;;5.10;;
7324;SDS011;3703;48.016;7.802;2023-05-07T09:24:26;6.97;;;5.53;;
7324;SDS011;3703;48.016;7.802;2023-05-07T09:26:55;10.33;;;7.17;;
7324;SDS011;3703;48.016;7.802;2023-05-07T09:29:25;8.40;;;6.20;;
7324;SDS011;3703;48.016;7.802;2023-05-07T09:31:53;9.60;;;6.30;;
7324;SDS011;3703;48.016;7.802;2023-05-07T09:34:21;10.07;;;7.00;;
7324;SDS011;3703;48.016;7.802;2023-05-07T09:36:48;9.27;;;6.83;;
7324;SDS011;3703;48.016;7.802;2023-05-07T09:39:16;8.70;;;6.37;;
7324;SDS011;3703;48.016;7.802;2023-05-07T09:41:43;10.63;;;7.57;;
7324;SDS011;3703;48.016;7.802;2023-05-07T09:44:12;7.63;;;6.50;;
7324;SDS011;3703;48.016;7.802;2023-05-07T09:46:41;7.60;;;6.17;;
7324;SDS011;3703;48.016;7.802;2023-05-07T09:49:12;7.63;;;5.50;;
7324;SDS011;3703;48.016;7.802;2023-05-07T09:51:49;9.67;;;6.10;;
7324;SDS011;3703;48.016;7.802;2023-05-07T09:54:17;7.23;;;5.73;;
7324;SDS011;3703;48.016;7.802;2023-05-07T09:56:45;8.07;;;5.40;;
7324;SDS011;3703;48.016;7.802;2023-05-07T09:59:16;7.03;;;5.50;;
7324;SDS011;3703;48.016;7.802;2023-05-07T10:01:44;8.50;;;6.10;;
7324;SDS011;3703;48.016;7.802;2023-05-07T10:04:12;6.67;;;5.33;;
7324;SDS011;3703;48.016;7.802;2023-05-07T10:06:40;5.80;;;4.93;;
7324;SDS011;3703;48.016;7.802;2023-05-07T10:09:09;5.47;;;4.70;;
7324;SDS011;3703;48.016;7.802;2023-05-07T10:11:36;5.90;;;4.23;;
7324;SDS011;3703;48.016;7.802;2023-05-07T10:14:03;5.53;;;4.07;;
7324;SDS011;3703;48.016;7.802;2023-05-07T10:16:33;4.43;;;3.77;;
7324;SDS011;3703;48.016;7.802;2023-05-07T10:19:02;4.40;;;4.00;;
7324;SDS011;3703;48.016;7.802;2023-05-07T10:21:30;6.73;;;4.37;;
7324;SDS011;3703;48.016;7.802;2023-05-07T10:23:58;6.20;;;4.57;;
7324;SDS011;3703;48.016;7.802;2023-05-07T10:26:33;6.03;;;4.40;;
7324;SDS011;3703;48.016;7.802;2023-05-07T10:29:03;5.53;;;4.60;;
7324;SDS011;3703;48.016;7.802;2023-05-07T10:31:44;6.23;;;4.80;;
7324;SDS011;3703;48.016;7.802;2023-05-07T10:34:23;6.03;;;4.53;;
7324;SDS011;3703;48.016;7.802;2023-05-07T10:36:55;6.80;;;4.70;;
7324;SDS011;3703;48.016;7.802;2023-05-07T10:39:23;8.10;;;5.40;;
7324;SDS011;3703;48.016;7.802;2023-05-07T10:41:51;6.07;;;5.40;;
7324;SDS011;3703;48.016;7.802;2023-05-07T10:44:27;5.37;;;4.87;;
7324;SDS011;3703;48.016;7.802;2023-05-07T10:47:06;6.43;;;4.60;;
7324;SDS011;3703;48.016;7.802;2023-05-07T10:49:35;6.17;;;5.40;;
7324;SDS011;3703;48.016;7.802;2023-05-07T10:52:13;7.13;;;5.63;;
7324;SDS011;3703;48.016;7.802;2023-05-07T10:54:43;10.87;;;7.13;;
7324;SDS011;3703;48.016;7.802;2023-05-07T11:00:00;7.63;;;4.90;;
7324;SDS011;3703;48.016;7.802;2023-05-07T11:05:33;7.93;;;5.77;;
7324;SDS011;3703;48.016;7.802;2023-05-07T11:08:01;7.37;;;4.97;;
7324;SDS011;3703;48.016;7.802;2023-05-07T11:13:18;11.40;;;5.70;;
7324;SDS011;3703;48.016;7.802;2023-05-07T11:16:16;8.40;;;5.70;;
7324;SDS011;3703;48.016;7.802;2023-05-07T11:18:48;8.80;;;5.60;;
7324;SDS011;3703;48.016;7.802;2023-05-07T11:21:33;5.80;;;4.67;;
7324;SDS011;3703;48.016;7.802;2023-05-07T11:24:03;8.50;;;6.07;;
7324;SDS011;3703;48.016;7.802;2023-05-07T11:26:41;8.23;;;5.53;;
7324;SDS011;3703;48.016;7.802;2023-05-07T11:29:11;6.60;;;4.37;;
7324;SDS011;3703;48.016;7.802;2023-05-07T11:31:42;7.63;;;5.30;;
7324;SDS011;3703;48.016;7.802;2023-05-07T11:34:12;4.73;;;4.23;;
7324;SDS011;3703;48.016;7.802;2023-05-07T11:36:41;5.73;;;4.37;;
7324;SDS011;3703;48.016;7.802;2023-05-07T11:39:25;4.63;;;4.23;;
7324;SDS011;3703;48.016;7.802;2023-05-07T11:41:54;5.03;;;4.50;;
7324;SDS011;3703;48.016;7.802;2023-05-07T11:44:21;5.17;;;4.50;;
7324;SDS011;3703;48.016;7.802;2023-05-07T11:46:49;7.20;;;5.10;;
7324;SDS011;3703;48.016;7.802;2023-05-07T11:49:18;6.73;;;5.00;;
7324;SDS011;3703;48.016;7.802;2023-05-07T11:51:45;7.33;;;4.63;;
7324;SDS011;3703;48.016;7.802;2023-05-07T11:54:15;6.03;;;4.23;;
7324;SDS011;3703;48.016;7.802;2023-05-07T11:56:43;5.83;;;4.60;;
7324;SDS011;3703;48.016;7.802;2023-05-07T11:59:16;6.27;;;4.23;;
7324;SDS011;3703;48.016;7.802;2023-05-07T12:01:45;6.00;;;4.57;;
7324;SDS011;3703;48.016;7.802;2023-05-07T12:04:13;5.33;;;4.37;;
7324;SDS011;3703;48.016;7.802;2023-05-07T12:06:41;20.10;;;6.03;;
7324;SDS011;3703;48.016;7.802;2023-05-07T12:09:08;8.20;;;4.47;;
7324;SDS011;3703;48.016;7.802;2023-05-07T12:11:36;7.83;;;4.47;;
7324;SDS011;3703;48.016;7.802;2023-05-07T12:14:05;9.53;;;4.80;;
7324;SDS011;3703;48.016;7.802;2023-05-07T12:16:32;5.43;;;4.13;;
7324;SDS011;3703;48.016;7.802;2023-05-07T12:19:00;5.67;;;4.80;;
7324;SDS011;3703;48.016;7.802;2023-05-07T12:21:28;6.40;;;4.37;;
7324;SDS011;3703;48.016;7.802;2023-05-07T12:23:57;7.43;;;5.00;;
7324;SDS011;3703;48.016;7.802;2023-05-07T12:26:25;4.73;;;4.33;;
7324;SDS011;3703;48.016;7.802;2023-05-07T12:28:52;5.50;;;4.17;;
7324;SDS011;3703;48.016;7.802;2023-05-07T12:31:19;5.90;;;5.13;;
7324;SDS011;3703;48.016;7.802;2023-05-07T12:33:47;6.80;;;4.63;;
7324;SDS011;3703;48.016;7.802;2023-05-07T12:36:14;6.23;;;4.40;;
7324;SDS011;3703;48.016;7.802;2023-05-07T12:38:41;9.23;;;4.93;;
7324;SDS011;3703;48.016;7.802;2023-05-07T12:41:10;4.87;;;4.23;;
7324;SDS011;3703;48.016;7.802;2023-05-07T12:43:38;4.77;;;4.23;;
7324;SDS011;3703;48.016;7.802;2023-05-07T12:46:06;5.20;;;4.70;;
7324;SDS011;3703;48.016;7.802;2023-05-07T12:48:35;4.57;;;3.87;;
7324;SDS011;3703;48.016;7.802;2023-05-07T12:51:03;4.77;;;4.13;;
7324;SDS011;3703;48.016;7.802;2023-05-07T12:53:32;12.60;;;4.30;;
7324;SDS011;3703;48.016;7.802;2023-05-07T12:56:01;4.33;;;3.80;;
7324;SDS011;3703;48.016;7.802;2023-05-07T12:58:34;8.13;;;4.47;;
7324;SDS011;3703;48.016;7.802;2023-05-07T13:01:04;3.90;;;3.60;;
7324;SDS011;3703;48.016;7.802;2023-05-07T13:03:33;5.07;;;3.83;;
7324;SDS011;3703;48.016;7.802;2023-05-07T13:06:02;7.97;;;4.83;;
7324;SDS011;3703;48.016;7.802;2023-05-07T13:08:35;6.73;;;4.30;;
7324;SDS011;3703;48.016;7.802;2023-05-07T13:11:07;6.97;;;4.50;;
7324;SDS011;3703;48.016;7.802;2023-05-07T13:13:37;8.00;;;4.50;;
7324;SDS011;3703;48.016;7.802;2023-05-07T13:16:06;6.90;;;4.97;;
7324;SDS011;3703;48.016;7.802;2023-05-07T13:18:35;7.47;;;4.57;;
7324;SDS011;3703;48.016;7.802;2023-05-07T13:21:05;5.37;;;4.53;;
7324;SDS011;3703;48.016;7.802;2023-05-07T13:23:32;5.27;;;4.50;;
7324;SDS011;3703;48.016;7.802;2023-05-07T13:26:00;5.27;;;4.77;;
7324;SDS011;3703;48.016;7.802;2023-05-07T13:28:27;4.87;;;4.37;;
7324;SDS011;3703;48.016;7.802;2023-05-07T13:30:56;5.07;;;4.57;;
7324;SDS011;3703;48.016;7.802;2023-05-07T13:33:23;6.90;;;4.70;;
7324;SDS011;3703;48.016;7.802;2023-05-07T13:35:50;5.23;;;4.77;;
7324;SDS011;3703;48.016;7.802;2023-05-07T13:38:18;7.43;;;4.60;;
7324;SDS011;3703;48.016;7.802;2023-05-07T13:40:45;6.70;;;4.93;;
7324;SDS011;3703;48.016;7.802;2023-05-07T13:43:12;5.87;;;4.63;;
7324;SDS011;3703;48.016;7.802;2023-05-07T13:45:39;5.57;;;4.97;;
7324;SDS011;3703;48.016;7.802;2023-05-07T13:48:08;5.20;;;4.23;;
7324;SDS011;3703;48.016;7.802;2023-05-07T13:50:35;4.87;;;4.40;;
7324;SDS011;3703;48.016;7.802;2023-05-07T13:53:02;6.93;;;4.57;;
7324;SDS011;3703;48.016;7.802;2023-05-07T13:55:30;6.70;;;5.10;;
7324;SDS011;3703;48.016;7.802;2023-05-07T13:57:57;4.90;;;4.40;;
7324;SDS011;3703;48.016;7.802;2023-05-07T14:00:26;6.23;;;4.63;;
7324;SDS011;3703;48.016;7.802;2023-05-07T14:02:54;7.43;;;4.40;;
7324;SDS011;3703;48.016;7.802;2023-05-07T14:05:24;5.97;;;4.40;;
7324;SDS011;3703;48.016;7.802;2023-05-07T14:07:53;5.60;;;4.27;;
7324;SDS011;3703;48.016;7.802;2023-05-07T14:10:21;16.87;;;5.57;;
7324;SDS011;3703;48.016;7.802;2023-05-07T14:12:48;5.47;;;4.17;;
7324;SDS011;3703;48.016;7.802;2023-05-07T14:15:16;3.60;;;3.30;;
7324;SDS011;3703;48.016;7.802;2023-05-07T14:17:43;3.43;;;3.00;;
7324;SDS011;3703;48.016;7.802;2023-05-07T14:20:12;3.00;;;2.80;;
7324;SDS011;3703;48.016;7.802;2023-05-07T14:22:40;2.50;;;2.20;;
7324;SDS011;3703;48.016;7.802;2023-05-07T14:25:08;2.13;;;1.93;;
7324;SDS011;3703;48.016;7.802;2023-05-07T14:27:35;6.53;;;3.00;;
7324;SDS011;3703;48.016;7.802;2023-05-07T14:30:03;4.70;;;2.50;;
7324;SDS011;3703;48.016;7.802;2023-05-07T14:32:31;3.07;;;1.60;;
7324;SDS011;3703;48.016;7.802;2023-05-07T14:34:59;3.90;;;2.30;;
7324;SDS011;3703;48.016;7.802;2023-05-07T14:37:26;4.03;;;2.20;;
7324;SDS011;3703;48.016;7.802;2023-05-07T14:39:54;1.83;;;1.73;;
7324;SDS011;3703;48.016;7.802;2023-05-07T14:42:22;2.10;;;1.80;;
7324;SDS011;3703;48.016;7.802;2023-05-07T14:44:49;4.07;;;1.60;;
7324;SDS011;3703;48.016;7.802;2023-05-07T14:47:18;2.23;;;1.80;;
7324;SDS011;3703;48.016;7.802;2023-05-07T14:49:45;2.13;;;1.80;;
7324;SDS011;3703;48.016;7.802;2023-05-07T14:52:12;1.67;;;1.57;;
7324;SDS011;3703;48.016;7.802;2023-05-07T14:54:39;2.87;;;1.80;;
7324;SDS011;3703;48.016;7.802;2023-05-07T14:57:08;2.10;;;1.73;;
7324;SDS011;3703;48.016;7.802;2023-05-07T14:59:38;3.30;;;2.00;;
7324;SDS011;3703;48.016;7.802;2023-05-07T15:02:06;2.30;;;2.10;;
7324;SDS011;3703;48.016;7.802;2023-05-07T15:04:33;3.23;;;1.80;;
7324;SDS011;3703;48.016;7.802;2023-05-07T15:07:01;2.70;;;2.03;;
7324;SDS011;3703;48.016;7.802;2023-05-07T15:09:28;12.67;;;2.73;;
7324;SDS011;3703;48.016;7.802;2023-05-07T15:11:56;11.73;;;5.43;;
7324;SDS011;3703;48.016;7.802;2023-05-07T15:14:24;4.13;;;3.13;;
7324;SDS011;3703;48.016;7.802;2023-05-07T15:16:52;6.73;;;4.47;;
7324;SDS011;3703;48.016;7.802;2023-05-07T15:19:19;8.30;;;5.00;;
7324;SDS011;3703;48.016;7.802;2023-05-07T15:21:47;6.73;;;4.37;;
7324;SDS011;3703;48.016;7.802;2023-05-07T15:24:14;6.03;;;3.03;;
7324;SDS011;3703;48.016;7.802;2023-05-07T15:26:41;6.20;;;3.27;;
7324;SDS011;3703;48.016;7.802;2023-05-07T15:29:09;3.90;;;2.40;;